Time;durP1;ratioP1;P1;durP2;ratioP2;P2;SDS_P1;SDS_P2;PMS_P1;PMS_P2;Temp;Humidity;BMP_temperature;BMP_pressure;BME280_temperature;BME280_humidity;BME280_pressure;Samples;Min_cycle;Max_cycle;Signal;HPM_P1;HPM_P2
2022/02/21 00:03:49;;;;;;;1.33;0.30;;;11.20;88.40;;;;;;10123868;28;20140;-65
2022/02/21 00:08:40;;;;;;;1.25;0.57;;;11.20;88.40;;;;;;10140106;28;20029;-65
2022/02/21 00:13:31;;;;;;;2.45;0.35;;;11.20;88.40;;;;;;10140062;28;20501;-65
2022/02/21 00:18:21;;;;;;;2.03;0.90;;;11.00;88.60;;;;;;10145064;28;20082;-65
2022/02/21 00:23:13;;;;;;;0.60;0.30;;;10.90;89.30;;;;;;10138330;28;20109;-64
2022/02/21 00:28:04;;;;;;;1.13;0.43;;;10.80;89.70;;;;;;10143318;28;20074;-65
2022/02/21 00:32:55;;;;;;;3.00;1.27;;;10.80;90.00;;;;;;10142310;28;20020;-65
2022/02/21 00:37:45;;;;;;;5.60;0.98;;;10.80;89.90;;;;;;10141153;28;20034;-65
2022/02/21 00:42:36;;;;;;;2.00;0.90;;;10.80;90.00;;;;;;10142281;28;20089;-65
2022/02/21 00:47:28;;;;;;;1.33;0.70;;;10.80;89.80;;;;;;10157472;28;20038;-64
2022/02/21 00:52:20;;;;;;;0.70;0.60;;;10.80;90.00;;;;;;10135111;28;20311;-66
2022/02/21 00:57:11;;;;;;;1.85;0.75;;;10.80;90.20;;;;;;10137472;28;20402;-65
2022/02/21 01:02:01;;;;;;;1.10;0.50;;;10.80;90.30;;;;;;10123809;28;20053;-65
2022/02/21 01:06:55;;;;;;;3.88;1.17;;;10.80;90.40;;;;;;10097962;28;20077;-65
2022/02/21 01:11:46;;;;;;;0.70;0.40;;;10.80;90.30;;;;;;10100215;28;20032;-65
2022/02/21 01:16:36;;;;;;;3.58;1.95;;;10.80;90.30;;;;;;10103384;28;20031;-64
2022/02/21 01:21:27;;;;;;;3.85;1.00;;;10.80;90.30;;;;;;10089283;28;20037;-64
2022/02/21 01:26:18;;;;;;;2.78;0.75;;;10.80;90.30;;;;;;10105679;28;20419;-65
2022/02/21 01:31:08;;;;;;;1.65;0.70;;;10.80;90.30;;;;;;10081162;28;20036;-65
2022/02/21 01:35:59;;;;;;;1.75;0.75;;;10.80;90.30;;;;;;10099549;28;20040;-65
2022/02/21 01:40:50;;;;;;;0.77;0.45;;;10.90;90.30;;;;;;10101270;28;20036;-64
2022/02/21 01:45:41;;;;;;;0.32;0.28;;;10.90;90.20;;;;;;10101778;28;20399;-65
2022/02/21 01:50:32;;;;;;;0.85;0.38;;;11.00;90.10;;;;;;10096777;28;20261;-65
2022/02/21 01:55:22;;;;;;;1.30;0.47;;;11.10;90.00;;;;;;10099567;28;20403;-66
2022/02/21 02:00:14;;;;;;;1.33;0.40;;;11.10;89.90;;;;;;10099335;28;20021;-65
2022/02/21 02:05:06;;;;;;;0.95;0.20;;;11.10;89.90;;;;;;10149283;28;20071;-65
2022/02/21 02:09:57;;;;;;;0.10;0.10;;;11.10;89.70;;;;;;10144158;28;20116;-65
2022/02/21 02:14:47;;;;;;;2.88;0.50;;;11.10;89.60;;;;;;10143369;28;20108;-65
2022/02/21 02:19:40;;;;;;;0.55;0.28;;;11.10;89.60;;;;;;10142172;28;20027;-65
2022/02/21 02:24:31;;;;;;;0.20;0.13;;;11.10;89.50;;;;;;10135904;28;20060;-64
2022/02/21 02:29:22;;;;;;;1.23;0.30;;;11.20;89.10;;;;;;10143344;28;20081;-65
2022/02/21 02:34:13;;;;;;;0.77;0.40;;;11.10;89.10;;;;;;10146116;28;20032;-65
2022/02/21 02:39:04;;;;;;;0.17;0.17;;;11.10;89.20;;;;;;10146107;28;20101;-65
2022/02/21 02:43:54;;;;;;;0.88;0.20;;;11.10;89.20;;;;;;10144655;28;20028;-65
2022/02/21 02:48:45;;;;;;;0.30;0.30;;;11.10;89.30;;;;;;10127520;28;20494;-65
2022/02/21 02:53:36;;;;;;;2.67;0.43;;;11.10;89.40;;;;;;10144027;28;20036;-66
2022/02/21 02:58:28;;;;;;;0.38;0.20;;;11.00;89.40;;;;;;10141705;28;20036;-65
2022/02/21 03:03:19;;;;;;;0.30;0.30;;;10.90;89.80;;;;;;10120495;28;20045;-65
2022/02/21 03:08:10;;;;;;;0.40;0.20;;;10.90;90.00;;;;;;10111329;28;20039;-64
2022/02/21 03:13:00;;;;;;;0.82;0.45;;;10.90;89.60;;;;;;10104392;28;20107;-67
2022/02/21 03:17:52;;;;;;;2.40;0.75;;;7.60;91.40;;;;;;10110063;28;20032;-66
2022/02/21 03:22:44;;;;;;;0.63;0.57;;;5.80;94.40;;;;;;10109203;28;20387;-66
2022/02/21 03:27:43;;;;;;;0.90;0.43;;;5.60;95.20;;;;;;10105607;28;20144;-64
2022/02/21 03:32:33;;;;;;;2.58;1.67;;;5.50;94.50;;;;;;10101669;28;20068;-65
2022/02/21 03:37:24;;;;;;;2.33;0.75;;;5.50;94.60;;;;;;10091467;28;20052;-66
2022/02/21 03:42:15;;;;;;;3.22;1.00;;;5.60;94.70;;;;;;10110299;28;20482;-67
2022/02/21 03:47:06;;;;;;;2.30;0.60;;;5.70;95.00;;;;;;10102143;28;20436;-67
2022/02/21 03:51:56;;;;;;;3.08;0.77;;;5.60;95.30;;;;;;10082257;28;20499;-65
2022/02/21 03:56:47;;;;;;;0.22;0.22;;;5.60;95.50;;;;;;10101423;28;20557;-65
2022/02/21 04:01:38;;;;;;;1.95;0.40;;;5.70;95.60;;;;;;10105885;28;20063;-65
2022/02/21 04:06:28;;;;;;;1.42;0.50;;;5.80;95.40;;;;;;10100880;28;20096;-65
2022/02/21 04:11:19;;;;;;;3.38;0.63;;;5.90;95.70;;;;;;10108866;28;20045;-66
2022/02/21 04:16:10;;;;;;;0.25;0.17;;;6.10;95.40;;;;;;10107127;28;20036;-67
2022/02/21 04:21:00;;;;;;;0.70;0.50;;;6.30;95.20;;;;;;10101754;28;20044;-65
2022/02/21 04:25:51;;;;;;;0.55;0.28;;;6.50;95.00;;;;;;10103530;28;20012;-68
2022/02/21 04:30:42;;;;;;;1.13;0.25;;;6.60;94.90;;;;;;10087526;28;20035;-66
2022/02/21 04:35:32;;;;;;;0.60;0.32;;;6.70;94.80;;;;;;10098363;28;20072;-67
2022/02/21 04:40:25;;;;;;;0.43;0.10;;;6.70;94.50;;;;;;10105290;28;20361;-66
2022/02/21 04:45:17;;;;;;;3.22;0.60;;;6.90;94.60;;;;;;10104328;28;20103;-65
2022/02/21 04:50:09;;;;;;;2.80;0.40;;;6.80;94.00;;;;;;10102727;28;20151;-66
2022/02/21 04:55:00;;;;;;;0.82;0.40;;;6.90;93.80;;;;;;10107413;28;20640;-66
2022/02/21 04:59:50;;;;;;;3.10;0.73;;;7.00;93.60;;;;;;10104537;28;20017;-67
2022/02/21 05:04:41;;;;;;;4.15;0.60;;;7.00;93.40;;;;;;10104249;28;20049;-67
2022/02/21 05:09:32;;;;;;;7.07;1.27;;;7.00;93.30;;;;;;10103174;28;20588;-65
2022/02/21 05:14:24;;;;;;;6.03;0.82;;;7.10;93.10;;;;;;10099954;28;20037;-66
2022/02/21 05:19:15;;;;;;;3.25;0.90;;;7.10;92.80;;;;;;10103688;28;20490;-66
2022/02/21 05:24:06;;;;;;;1.60;0.70;;;7.10;92.80;;;;;;10102720;28;20094;-66
2022/02/21 05:28:56;;;;;;;6.22;0.88;;;7.10;93.00;;;;;;10106123;28;20545;-67
2022/02/21 05:33:47;;;;;;;5.30;1.80;;;7.10;92.50;;;;;;10097127;28;20032;-66
2022/02/21 05:38:38;;;;;;;3.65;1.08;;;7.10;92.50;;;;;;10102493;28;20406;-66
2022/02/21 05:43:28;;;;;;;3.88;1.10;;;7.10;92.50;;;;;;10095690;28;20076;-66
2022/02/21 05:48:19;;;;;;;7.15;1.08;;;7.10;92.50;;;;;;10075329;28;20021;-66
2022/02/21 05:53:11;;;;;;;9.45;1.48;;;7.00;92.50;;;;;;10099796;28;20143;-65
2022/02/21 05:58:02;;;;;;;4.10;1.10;;;6.90;92.20;;;;;;10098540;28;20029;-65
2022/02/21 06:02:53;;;;;;;9.73;2.17;;;6.90;92.20;;;;;;10095751;28;20604;-65
2022/02/21 06:07:44;;;;;;;3.83;0.93;;;6.80;91.90;;;;;;10102062;28;20036;-65
2022/02/21 06:12:35;;;;;;;3.60;0.98;;;6.80;91.30;;;;;;10111668;28;20056;-66
2022/02/21 06:17:26;;;;;;;5.05;1.30;;;6.80;91.50;;;;;;10111977;28;20083;-66
2022/02/21 06:22:20;;;;;;;2.70;1.40;;;6.70;91.20;;;;;;10105988;28;20388;-65
2022/02/21 06:27:10;;;;;;;6.10;2.17;;;6.60;90.80;;;;;;10104808;28;20033;-65
2022/02/21 06:32:01;;;;;;;5.65;2.25;;;6.70;90.40;;;;;;10108128;28;20031;-64
2022/02/21 06:36:53;;;;;;;6.80;1.50;;;6.70;90.00;;;;;;10104525;28;20021;-67
2022/02/21 06:41:43;;;;;;;6.40;1.73;;;6.70;90.00;;;;;;10096278;28;20060;-65
2022/02/21 06:46:34;;;;;;;3.60;1.48;;;6.70;89.80;;;;;;10100001;28;20125;-65
2022/02/21 06:51:24;;;;;;;3.20;1.45;;;6.80;89.20;;;;;;10104778;28;20024;-65
2022/02/21 06:56:15;;;;;;;4.70;1.33;;;6.80;88.20;;;;;;10111790;28;20033;-66
2022/02/21 07:01:06;;;;;;;6.60;2.05;;;6.90;88.00;;;;;;10104278;28;20056;-66
2022/02/21 07:05:56;;;;;;;8.15;1.50;;;7.00;87.80;;;;;;10110390;28;20029;-65
2022/02/21 07:10:47;;;;;;;3.30;1.42;;;7.10;87.60;;;;;;10102199;28;20025;-65
2022/02/21 07:15:38;;;;;;;8.27;2.22;;;7.20;87.40;;;;;;10102957;28;20029;-65
2022/02/21 07:20:28;;;;;;;6.55;1.65;;;7.20;87.20;;;;;;10114167;28;20422;-66
2022/02/21 07:25:19;;;;;;;9.88;1.38;;;7.30;87.00;;;;;;10113411;28;20910;-65
2022/02/21 07:30:11;;;;;;;6.32;1.58;;;7.30;86.40;;;;;;10110107;28;20029;-65
2022/02/21 07:35:02;;;;;;;2.22;1.13;;;7.40;86.50;;;;;;10102009;28;20040;-67
2022/02/21 07:39:53;;;;;;;5.97;1.42;;;7.50;86.30;;;;;;10089763;28;20463;-69
2022/02/21 07:44:44;;;;;;;4.72;1.90;;;7.40;85.70;;;;;;10109920;28;20085;-67
2022/02/21 07:49:34;;;;;;;6.35;1.95;;;7.40;85.50;;;;;;10104376;28;20029;-68
2022/02/21 07:54:25;;;;;;;2.83;0.93;;;7.50;85.70;;;;;;10069838;28;20029;-65
2022/02/21 07:59:17;;;;;;;3.70;1.08;;;7.50;84.30;;;;;;10105887;28;20016;-66
2022/02/21 08:04:07;;;;;;;6.35;1.65;;;7.60;84.30;;;;;;10101050;28;20052;-64
2022/02/21 08:08:58;;;;;;;9.32;2.78;;;7.70;84.30;;;;;;10097931;28;20029;-64
2022/02/21 08:13:49;;;;;;;11.80;1.63;;;7.90;83.70;;;;;;10104935;28;20029;-66
2022/02/21 08:18:39;;;;;;;5.47;2.05;;;7.80;83.40;;;;;;10117018;28;20021;-65
2022/02/21 08:23:30;;;;;;;8.20;2.00;;;7.70;83.10;;;;;;10098204;28;20037;-65
2022/02/21 08:28:21;;;;;;;6.75;1.90;;;7.80;82.80;;;;;;10097594;28;20025;-62
2022/02/21 08:33:12;;;;;;;2.20;1.05;;;7.80;82.50;;;;;;10100550;28;20036;-64
2022/02/21 08:38:04;;;;;;;3.63;1.27;;;7.90;82.20;;;;;;10089273;28;20040;-63
2022/02/21 08:42:55;;;;;;;10.43;3.35;;;8.10;81.90;;;;;;10105483;28;20029;-63
2022/02/21 08:47:45;;;;;;;6.05;1.75;;;8.30;81.00;;;;;;10096835;28;20033;-62
2022/02/21 08:52:40;;;;;;;3.10;1.40;;;8.50;80.50;;;;;;10104283;28;20043;-63
2022/02/21 08:57:31;;;;;;;5.43;1.30;;;8.50;80.50;;;;;;10102664;28;20124;-66
2022/02/21 09:02:22;;;;;;;4.93;1.55;;;8.40;80.30;;;;;;10106510;28;20055;-64
2022/02/21 09:07:12;;;;;;;3.80;1.08;;;8.40;80.30;;;;;;10101891;28;20078;-62
2022/02/21 09:12:03;;;;;;;3.25;1.55;;;8.30;79.80;;;;;;10089333;28;20550;-64
2022/02/21 09:16:54;;;;;;;2.20;1.15;;;8.20;79.60;;;;;;10101614;28;20029;-64
2022/02/21 09:21:45;;;;;;;5.28;1.70;;;8.30;78.70;;;;;;10100557;28;20061;-64
2022/02/21 09:26:35;;;;;;;4.28;0.85;;;8.50;78.60;;;;;;10098009;28;20029;-65
2022/02/21 09:31:26;;;;;;;6.35;1.05;;;8.50;78.60;;;;;;10110903;28;20025;-67
2022/02/21 09:36:17;;;;;;;7.97;1.23;;;8.50;78.70;;;;;;10105522;28;20062;-64
2022/02/21 09:41:08;;;;;;;2.30;1.00;;;8.60;78.20;;;;;;10100973;28;20043;-65
2022/02/21 09:46:12;;;;;;;4.28;1.30;;;8.70;77.50;;;;;;10094046;28;20025;-64
2022/02/21 09:51:04;;;;;;;5.88;1.05;;;8.80;77.30;;;;;;10108125;28;20031;-63
2022/02/21 09:55:55;;;;;;;8.70;1.40;;;8.90;77.00;;;;;;10109685;28;20396;-64
2022/02/21 10:00:47;;;;;;;1.77;1.50;;;8.90;76.60;;;;;;10108307;28;20051;-63
2022/02/21 10:05:38;;;;;;;6.43;1.70;;;8.90;76.10;;;;;;10105130;28;20406;-64
2022/02/21 10:10:29;;;;;;;1.90;1.05;;;8.80;75.20;;;;;;10105659;28;20036;-63
2022/02/21 10:15:46;;;;;;;2.90;1.13;;;8.90;74.60;;;;;;10106782;28;20056;-66
2022/02/21 10:20:53;;;;;;;6.40;1.13;;;8.80;74.40;;;;;;10099510;28;20036;-64
2022/02/21 10:25:59;;;;;;;2.40;0.80;;;9.10;73.60;;;;;;10109622;28;20024;-64
2022/02/21 10:31:15;;;;;;;2.13;1.20;;;9.00;73.60;;;;;;10105640;28;20408;-65
2022/02/21 10:36:33;;;;;;;5.50;0.80;;;9.10;73.00;;;;;;10106186;28;20099;-64
2022/02/21 10:41:52;;;;;;;1.85;0.60;;;9.20;72.90;;;;;;10108960;28;20033;-66
2022/02/21 10:47:04;;;;;;;4.90;1.23;;;9.20;71.60;;;;;;10106511;28;20889;-64
2022/02/21 10:51:57;;;;;;;4.95;1.40;;;9.30;71.50;;;;;;10104321;28;20415;-65
2022/02/21 10:56:48;;;;;;;2.22;0.80;;;9.20;72.10;;;;;;10107716;28;20040;-64
2022/02/21 11:01:39;;;;;;;4.28;1.13;;;9.30;71.80;;;;;;10096314;28;20048;-65
2022/02/21 11:06:29;;;;;;;1.17;0.68;;;9.20;71.60;;;;;;10110668;28;20032;-63
2022/02/21 11:11:23;;;;;;;1.88;1.05;;;9.20;71.40;;;;;;10105984;28;20040;-64
2022/02/21 11:16:17;;;;;;;2.60;0.93;;;9.10;71.20;;;;;;10105981;28;20059;-64
2022/02/21 11:21:09;;;;;;;4.32;0.70;;;9.20;70.80;;;;;;10087279;28;20505;-67
2022/02/21 11:26:28;;;;;;;4.40;0.98;;;9.30;70.80;;;;;;10106354;28;20436;-66
2022/02/21 11:31:27;;;;;;;1.83;0.93;;;9.40;70.80;;;;;;10096574;28;20048;-66
2022/02/21 11:36:20;;;;;;;2.97;1.65;;;9.30;71.30;;;;;;10101676;28;20059;-65
2022/02/21 11:41:14;;;;;;;2.17;1.15;;;9.40;71.80;;;;;;10111018;28;20142;-64
2022/02/21 11:46:06;;;;;;;3.50;0.90;;;9.50;71.50;;;;;;10095394;28;20171;-65
2022/02/21 11:50:59;;;;;;;8.48;1.30;;;9.50;71.30;;;;;;10100239;28;20044;-64
2022/02/21 11:55:51;;;;;;;6.47;1.40;;;9.50;71.30;;;;;;10102473;28;20108;-65
2022/02/21 12:00:46;;;;;;;2.13;1.02;;;9.40;71.20;;;;;;10106902;28;20144;-64
2022/02/21 12:05:37;;;;;;;3.25;0.70;;;9.60;71.50;;;;;;10107758;28;20039;-63
2022/02/21 12:10:29;;;;;;;3.53;1.10;;;9.80;71.30;;;;;;10101688;28;20029;-63
2022/02/21 12:15:21;;;;;;;2.70;1.55;;;9.70;71.40;;;;;;10103169;28;20028;-63
2022/02/21 12:20:27;;;;;;;2.97;0.82;;;9.70;71.40;;;;;;10104135;28;20036;-63
2022/02/21 12:25:19;;;;;;;6.03;1.42;;;9.70;71.70;;;;;;10111908;28;20076;-65
2022/02/21 12:30:10;;;;;;;3.60;0.95;;;9.90;71.50;;;;;;10103864;28;20059;-63
2022/02/21 12:35:00;;;;;;;2.92;1.27;;;9.70;71.10;;;;;;10102055;28;20074;-63
2022/02/21 12:39:51;;;;;;;2.10;1.00;;;9.50;71.50;;;;;;10096991;28;20016;-63
2022/02/21 12:44:42;;;;;;;1.83;0.60;;;9.50;71.60;;;;;;10101465;28;20094;-64
2022/02/21 12:49:40;;;;;;;1.63;1.08;;;9.20;72.40;;;;;;10099739;28;20540;-62
2022/02/21 12:54:31;;;;;;;2.13;1.15;;;9.20;72.60;;;;;;10101894;28;20118;-60
2022/02/21 12:59:33;;;;;;;1.10;0.45;;;9.20;72.90;;;;;;10103634;28;20075;-63
2022/02/21 13:04:27;;;;;;;1.90;0.60;;;9.10;73.40;;;;;;10100006;28;20052;-69
2022/02/21 13:09:19;;;;;;;4.68;0.90;;;8.90;74.00;;;;;;10115961;28;20526;-65
2022/02/21 13:14:10;;;;;;;6.45;1.88;;;8.90;74.30;;;;;;10086841;28;20029;-64
2022/02/21 13:19:02;;;;;;;5.78;1.45;;;8.90;74.50;;;;;;10106601;28;20341;-63
2022/02/21 13:23:53;;;;;;;1.33;0.85;;;8.90;74.70;;;;;;10105688;28;20036;-64
2022/02/21 13:28:44;;;;;;;2.80;0.80;;;8.90;74.90;;;;;;10079951;28;20032;-63
2022/02/21 13:33:42;;;;;;;3.47;1.20;;;9.00;74.90;;;;;;10087338;28;20032;-62
2022/02/21 13:38:33;;;;;;;4.53;1.20;;;9.40;74.50;;;;;;10079742;28;20029;-63
2022/02/21 13:43:24;;;;;;;4.95;1.10;;;9.60;74.40;;;;;;10095797;28;20043;-65
2022/02/21 13:48:18;;;;;;;2.75;0.68;;;9.40;75.00;;;;;;10107058;28;20135;-63
2022/02/21 13:53:34;;;;;;;2.55;0.70;;;9.40;75.00;;;;;;10102332;28;20545;-63
2022/02/21 13:58:39;;;;;;;2.40;0.80;;;9.20;75.40;;;;;;10102201;28;20029;-66
2022/02/21 14:03:49;;;;;;;1.10;0.57;;;9.10;76.00;;;;;;10109807;28;20053;-63
2022/02/21 14:08:48;;;;;;;2.67;0.68;;;9.00;76.10;;;;;;10103558;28;20113;-65
2022/02/21 14:13:39;;;;;;;4.97;1.08;;;9.00;76.30;;;;;;10097695;28;20029;-63
2022/02/21 14:18:30;;;;;;;1.08;0.88;;;9.10;76.40;;;;;;10105953;28;20626;-62
2022/02/21 14:23:21;;;;;;;2.50;0.68;;;9.20;76.60;;;;;;10094356;28;20044;-60
2022/02/21 14:28:12;;;;;;;4.70;1.20;;;9.20;76.60;;;;;;10107759;28;20127;-62
2022/02/21 14:33:03;;;;;;;2.83;0.50;;;9.00;76.90;;;;;;10117031;28;20068;-64
2022/02/21 14:37:53;;;;;;;1.95;0.60;;;9.20;77.00;;;;;;10104983;28;20024;-63
2022/02/21 14:42:44;;;;;;;0.80;0.35;;;9.50;76.70;;;;;;10105746;28;20047;-63
2022/02/21 14:47:35;;;;;;;2.83;0.88;;;10.10;75.90;;;;;;10116197;28;20123;-65
2022/02/21 14:52:26;;;;;;;0.93;0.30;;;9.90;76.70;;;;;;10106501;28;20025;-63
2022/02/21 14:57:17;;;;;;;6.22;1.17;;;9.80;77.50;;;;;;10086157;28;20033;-63
2022/02/21 15:02:07;;;;;;;2.03;0.35;;;10.80;75.80;;;;;;10108306;28;20494;-63
2022/02/21 15:07:18;;;;;;;1.00;0.50;;;10.30;76.70;;;;;;10101466;28;20085;-62
2022/02/21 15:12:09;;;;;;;1.20;0.40;;;9.50;78.20;;;;;;10102480;28;20043;-62
2022/02/21 15:16:59;;;;;;;3.30;0.80;;;9.00;79.10;;;;;;10107502;28;20017;-62
2022/02/21 15:21:50;;;;;;;3.63;0.57;;;8.80;79.60;;;;;;10105007;28;20068;-62
2022/02/21 15:26:42;;;;;;;1.77;0.40;;;8.70;80.00;;;;;;10097212;28;20029;-63
2022/02/21 15:31:33;;;;;;;1.48;0.50;;;8.70;80.50;;;;;;10105674;28;20109;-64
2022/02/21 15:36:24;;;;;;;1.73;0.35;;;8.60;81.00;;;;;;10109105;28;20108;-64
2022/02/21 15:41:15;;;;;;;4.68;1.00;;;8.60;81.90;;;;;;10109006;28;20492;-63
2022/02/21 15:46:09;;;;;;;2.65;0.95;;;8.60;81.80;;;;;;10109716;28;20165;-63
2022/02/21 15:50:59;;;;;;;1.38;0.70;;;9.10;81.50;;;;;;10099089;28;20029;-65
2022/02/21 15:55:50;;;;;;;3.88;0.70;;;8.80;81.70;;;;;;10105019;28;20032;-67
2022/02/21 16:00:41;;;;;;;0.88;0.30;;;8.80;82.10;;;;;;10109077;28;20163;-66
2022/02/21 16:05:33;;;;;;;1.00;0.55;;;9.20;81.80;;;;;;10105235;28;20107;-66
2022/02/21 16:10:27;;;;;;;1.25;0.80;;;9.10;81.80;;;;;;10102154;28;20025;-65
2022/02/21 16:15:17;;;;;;;1.92;0.63;;;8.80;82.80;;;;;;10097180;28;20549;-62
2022/02/21 16:20:08;;;;;;;1.45;0.60;;;8.50;83.80;;;;;;10103971;28;20517;-65
2022/02/21 16:24:59;;;;;;;3.30;0.70;;;8.30;84.10;;;;;;10103018;28;20387;-63
2022/02/21 16:29:50;;;;;;;5.03;1.08;;;8.20;84.60;;;;;;10095641;28;20028;-66
2022/02/21 16:34:41;;;;;;;1.35;0.47;;;8.10;85.30;;;;;;10107592;28;20031;-64
2022/02/21 16:39:31;;;;;;;1.98;0.82;;;8.10;85.50;;;;;;10099819;28;20029;-62
2022/02/21 16:44:22;;;;;;;1.95;0.70;;;8.10;85.70;;;;;;10101597;28;20097;-65
2022/02/21 16:49:13;;;;;;;3.50;0.93;;;8.10;85.90;;;;;;10105479;28;20029;-65
2022/02/21 16:54:06;;;;;;;1.38;0.60;;;8.10;86.20;;;;;;10100015;28;20025;-62
2022/02/21 16:58:56;;;;;;;1.77;0.70;;;8.10;86.70;;;;;;10101987;28;20252;-63
2022/02/21 17:03:47;;;;;;;1.83;0.52;;;8.20;86.70;;;;;;10098274;28;20052;-64
2022/02/21 17:08:38;;;;;;;4.60;1.65;;;8.20;86.70;;;;;;10100092;28;20189;-65
2022/02/21 17:13:29;;;;;;;4.30;1.90;;;8.20;86.30;;;;;;10099820;28;20103;-61
2022/02/21 17:18:20;;;;;;;5.97;1.27;;;8.30;86.30;;;;;;10103643;28;20180;-65
2022/02/21 17:23:10;;;;;;;2.92;1.30;;;8.40;86.50;;;;;;10095695;28;20055;-64
2022/02/21 17:28:01;;;;;;;1.92;0.95;;;8.40;86.70;;;;;;10103191;28;20024;-63
2022/02/21 17:32:53;;;;;;;4.22;1.05;;;8.50;86.80;;;;;;10099698;28;20029;-63
2022/02/21 17:37:45;;;;;;;3.15;1.13;;;8.50;87.00;;;;;;10081840;28;20348;-74
2022/02/21 17:42:36;;;;;;;3.00;1.58;;;8.40;87.40;;;;;;10098564;28;20029;-66
2022/02/21 17:47:26;;;;;;;7.40;1.63;;;8.40;87.60;;;;;;10101999;28;20577;-66
2022/02/21 17:52:17;;;;;;;4.03;1.35;;;8.40;88.00;;;;;;10102089;28;20029;-64
2022/02/21 17:57:08;;;;;;;3.83;1.30;;;8.40;88.10;;;;;;10078552;28;20024;-63
2022/02/21 18:01:58;;;;;;;5.60;1.83;;;8.50;88.20;;;;;;10105688;28;20083;-69
2022/02/21 18:06:49;;;;;;;7.40;1.52;;;8.60;88.20;;;;;;10092510;28;20704;-65
2022/02/21 18:11:40;;;;;;;6.10;1.90;;;8.60;88.40;;;;;;10089102;28;20016;-71
2022/02/21 18:16:31;;;;;;;3.70;1.60;;;8.70;88.70;;;;;;10105955;28;20037;-69
2022/02/21 18:21:26;;;;;;;2.72;1.00;;;8.70;88.80;;;;;;10110386;28;20075;-64
2022/02/21 18:26:16;;;;;;;3.42;1.63;;;8.70;88.80;;;;;;10102887;28;20112;-62
2022/02/21 18:31:07;;;;;;;11.63;2.03;;;8.80;88.80;;;;;;10101852;28;20036;-64
2022/02/21 18:35:59;;;;;;;2.30;1.30;;;8.70;88.70;;;;;;10107611;28;20556;-62
2022/02/21 18:40:49;;;;;;;4.63;1.73;;;8.70;88.80;;;;;;10081724;28;20107;-67
2022/02/21 18:45:42;;;;;;;8.50;2.00;;;8.60;89.00;;;;;;10110496;28;20687;-67
2022/02/21 18:50:33;;;;;;;2.67;1.15;;;8.50;89.30;;;;;;10103967;28;20021;-66
2022/02/21 18:55:23;;;;;;;5.38;1.65;;;8.40;89.80;;;;;;10103235;28;20072;-61
2022/02/21 19:00:15;;;;;;;5.22;1.50;;;8.40;90.00;;;;;;10108741;28;20021;-63
2022/02/21 19:05:06;;;;;;;7.97;1.15;;;8.30;90.10;;;;;;10107819;28;20051;-64
2022/02/21 19:09:57;;;;;;;3.17;1.30;;;8.30;90.10;;;;;;10104335;28;20027;-63
2022/02/21 19:14:48;;;;;;;6.38;1.88;;;8.40;90.00;;;;;;10101764;28;20036;-63
2022/02/21 19:19:39;;;;;;;5.25;1.88;;;8.40;89.80;;;;;;10107389;28;20591;-64
2022/02/21 19:24:29;;;;;;;6.35;1.10;;;8.50;89.80;;;;;;10114900;28;20068;-64
2022/02/21 19:29:20;;;;;;;3.53;1.80;;;8.50;89.50;;;;;;10097021;28;20048;-62
2022/02/21 19:34:11;;;;;;;8.15;1.92;;;8.50;89.50;;;;;;10105071;28;20033;-64
2022/02/21 19:39:04;;;;;;;8.15;2.05;;;8.40;89.50;;;;;;10095370;28;20025;-68
2022/02/21 19:43:57;;;;;;;4.78;1.50;;;8.40;89.70;;;;;;10097140;28;20041;-68
2022/02/21 19:48:48;;;;;;;11.88;3.00;;;8.50;89.70;;;;;;10106362;28;20523;-68
2022/02/21 19:53:39;;;;;;;3.60;1.08;;;8.80;89.70;;;;;;10088582;28;20068;-69
2022/02/21 19:58:30;;;;;;;4.43;1.40;;;8.40;89.50;;;;;;10099109;28;20025;-68
2022/02/21 20:03:20;;;;;;;3.28;1.23;;;8.30;89.50;;;;;;10104231;28;20052;-69
2022/02/21 20:08:11;;;;;;;3.33;1.35;;;8.30;89.40;;;;;;10106073;28;20024;-68
2022/02/21 20:13:02;;;;;;;3.55;1.20;;;8.20;89.20;;;;;;10101246;28;20119;-65
2022/02/21 20:17:52;;;;;;;4.47;2.00;;;8.20;89.20;;;;;;10108441;28;20024;-63
2022/02/21 20:22:45;;;;;;;10.60;5.15;;;8.20;89.10;;;;;;10111221;28;20580;-68
2022/02/21 20:27:37;;;;;;;2.42;0.85;;;8.10;89.00;;;;;;10112260;28;20195;-67
2022/02/21 20:32:27;;;;;;;3.33;0.75;;;8.10;89.00;;;;;;10105259;28;20033;-70
2022/02/21 20:37:18;;;;;;;2.22;1.10;;;8.10;89.00;;;;;;10092831;28;20029;-65
2022/02/21 20:42:09;;;;;;;9.75;3.95;;;8.10;88.70;;;;;;10097286;28;20037;-71
2022/02/21 20:46:59;;;;;;;2.55;0.88;;;8.00;88.70;;;;;;10090954;28;20078;-68
2022/02/21 20:51:50;;;;;;;1.83;1.27;;;8.10;88.90;;;;;;10104551;28;20526;-67
2022/02/21 20:56:41;;;;;;;3.08;1.20;;;8.10;88.90;;;;;;10099711;28;20025;-66
2022/02/21 21:01:32;;;;;;;1.88;0.85;;;8.10;88.80;;;;;;10107677;28;20053;-67
2022/02/21 21:06:23;;;;;;;0.70;0.70;;;8.10;88.60;;;;;;10090394;28;20060;-67
2022/02/21 21:11:14;;;;;;;4.00;0.90;;;8.50;88.70;;;;;;10095751;28;20055;-68
2022/02/21 21:16:06;;;;;;;2.22;1.23;;;8.20;88.50;;;;;;10097097;28;20245;-65
2022/02/21 21:20:57;;;;;;;1.45;0.55;;;8.10;88.60;;;;;;10098714;28;20032;-68
2022/02/21 21:25:50;;;;;;;3.80;1.42;;;8.20;88.60;;;;;;10089125;28;20047;-68
2022/02/21 21:31:04;;;;;;;1.52;0.70;;;8.20;88.50;;;;;;10099692;28;20021;-67
2022/02/21 21:35:58;;;;;;;5.22;1.17;;;8.20;88.40;;;;;;10094098;28;20473;-67
2022/02/21 21:40:50;;;;;;;2.67;0.80;;;8.20;88.20;;;;;;10099670;28;20031;-67
2022/02/21 21:45:41;;;;;;;1.17;0.85;;;8.10;88.30;;;;;;10084451;28;20051;-68
2022/02/21 21:50:32;;;;;;;3.00;1.00;;;8.00;88.20;;;;;;10099915;28;20025;-69
2022/02/21 21:55:23;;;;;;;1.52;0.65;;;8.00;88.30;;;;;;10083682;28;20128;-67
2022/02/21 22:00:14;;;;;;;5.60;1.42;;;7.90;88.10;;;;;;10096419;28;20513;-66
2022/02/21 22:05:06;;;;;;;2.28;0.88;;;7.90;88.20;;;;;;10099589;28;20044;-69
2022/02/21 22:09:57;;;;;;;3.85;1.23;;;7.90;88.00;;;;;;10103873;28;20273;-69
2022/02/21 22:14:47;;;;;;;2.88;1.00;;;7.80;88.00;;;;;;10103680;28;20234;-68
2022/02/21 22:19:38;;;;;;;3.33;0.80;;;7.80;88.10;;;;;;10097252;28;20479;-67
2022/02/21 22:24:29;;;;;;;2.55;1.88;;;7.80;88.10;;;;;;10106318;28;20037;-66
2022/02/21 22:29:19;;;;;;;3.03;1.10;;;7.90;88.20;;;;;;10102630;28;20571;-67
2022/02/21 22:34:12;;;;;;;2.97;1.27;;;7.90;88.00;;;;;;10108095;28;20028;-66
2022/02/21 22:39:05;;;;;;;1.95;0.52;;;7.90;88.00;;;;;;10106558;28;20100;-67
2022/02/21 22:43:56;;;;;;;1.63;0.57;;;8.00;88.20;;;;;;10081052;28;20040;-67
2022/02/21 22:48:46;;;;;;;3.30;0.77;;;8.00;87.90;;;;;;10102911;28;20036;-67
2022/02/21 22:53:37;;;;;;;2.28;0.98;;;7.90;87.90;;;;;;10107564;28;20017;-68
2022/02/21 22:58:28;;;;;;;5.95;1.00;;;7.90;88.00;;;;;;10107730;28;20025;-66
2022/02/21 23:03:19;;;;;;;2.00;0.80;;;8.00;87.90;;;;;;10103391;28;20774;-65
2022/02/21 23:08:10;;;;;;;4.97;1.77;;;8.10;87.80;;;;;;10105156;28;20037;-68
2022/02/21 23:13:03;;;;;;;1.75;0.95;;;8.20;87.80;;;;;;10099876;28;20422;-65
2022/02/21 23:17:54;;;;;;;2.85;1.27;;;8.20;87.60;;;;;;10098807;28;20107;-67
2022/02/21 23:22:44;;;;;;;5.38;1.67;;;8.10;87.80;;;;;;10091297;28;20037;-66
2022/02/21 23:27:35;;;;;;;2.92;1.45;;;8.10;87.70;;;;;;10105725;28;20526;-68
2022/02/21 23:32:27;;;;;;;5.57;0.90;;;8.10;87.60;;;;;;10107233;28;20056;-66
2022/02/21 23:37:18;;;;;;;3.53;0.80;;;8.10;87.60;;;;;;10111025;28;20025;-66
2022/02/21 23:42:09;;;;;;;4.10;1.00;;;8.20;87.60;;;;;;10107441;28;20098;-68
2022/02/21 23:47:00;;;;;;;1.42;0.85;;;8.20;87.50;;;;;;10109761;28;20112;-67
2022/02/21 23:51:51;;;;;;;1.50;0.85;;;8.20;87.40;;;;;;10104964;28;20185;-66
2022/02/21 23:56:42;;;;;;;1.83;0.98;;;8.20;87.30;;;;;;10116830;28;20467;-67
